Vandenberg Air Force Base
KVBG : now visible

Airfield :











YOU CAN JOIN US ON...

 
LOGIN :

Register | Disclaimer

   EN    FR    IT 

 









Legend :    VFR   Marginal VFR   IFR   Intensive IFR   Very Intensive IFR
Visi :
Ceiling :
>= 8 km
>= 3000ft
5 to 8 km
1000 to 3000 ft
1500m to 5 km
500 to 1000 ft
800 to 1500m
200 to 500 ft
< 800m
< 200 ft
Symbols :   Thunderstorms  Fog  Heavy snow  Heavy precipitations  Wind > 20 kt







- Airport Elevation : 369 ft


KVBG - Vandenberg Air Force Base

CURRENT METAR :
  • 222155Z 35012KT 320V160 10SM FEW002 SCT006 15/11 A3004 RMK AO2A CIG 006 RWY12 SLP178 T01470111

EXPIRED METARs :
  • 222055Z 35011KT 330V070 3SM BR FEW002 BKN006 14/11 A3007 RMK AO2A SLP185 T01380108 58008
  • 221955Z 32011KT 250V350 3SM BR FEW002 BKN007 BKN330 14/11 A3007 RMK AO2A SLP187 T01440107
  • 221943Z 34009KT 3SM BR FEW002 BKN007 14/11 A3008 RMK AO2A SLP188
  • 221855Z 33012KT 300V360 3SM BR FEW002 OVC005 13/11 A3009 RMK AO2A CIG 004V006 SLP193 T01310106

TAF TAF KVBG
Valid from the 22 at 22:00 until the 24 at 04:00 UTC


222201Z 2222/2404 31012G18KT 9999 FEW002 SCT006 QNH3001INS
BECMG 2223/2224 31009KT 9999 FEW006 QNH3001INS
BECMG 2302/2303 31006KT 9999 SKC QNH3002INS
BECMG 2308/2309 VRB06KT 8000 BR SKC QNH3007INS
BECMG 2314/2315 VRB06KT 9999 NSW FEW005 QNH3002INS
BECMG 2322/2323 30009KT 9999 SKC QNH3000INS TX20/2222Z TN11/2313Z LAST NO AMDS AFT 2300 NEXT 2314
KZLA FIR / North America



MET'MAP, your aeronautical weather chart ! - Copyright ORBIFLY December 2007 - Disclaimer

ORBIFLY MET'MAP TEAM :

Programming & Development : Alexandra Zaïnal
Concept & Development : Baudouin d'Aumeries
Co-Development & Prog : Marc-Olivier Méhu
Technical & hardware support : Manuel Goepfert

Contact : metmap@orbifly.com




SOURCES & CREDITS :

   NOAA       Earth
Advisory